sensor_id;sensor_type;location;lat;lon;timestamp;pressure;altitude;pressure_sealevel;temperature;humidity
77776;BME280;73554;43.328;6.668;2023-11-21T00:02:12;100719.09;;;17.07;100.00
77776;BME280;73554;43.328;6.668;2023-11-21T00:04:37;100702.50;;;17.04;100.00
77776;BME280;73554;43.328;6.668;2023-11-21T00:07:03;100694.25;;;17.10;100.00
77776;BME280;73554;43.328;6.668;2023-11-21T00:09:29;100694.00;;;17.14;100.00
77776;BME280;73554;43.328;6.668;2023-11-21T00:11:54;100687.16;;;17.10;100.00
77776;BME280;73554;43.328;6.668;2023-11-21T00:14:19;100707.94;;;17.01;100.00
77776;BME280;73554;43.328;6.668;2023-11-21T00:16:45;100691.34;;;16.97;100.00
77776;BME280;73554;43.328;6.668;2023-11-21T00:19:11;100680.75;;;16.97;100.00
77776;BME280;73554;43.328;6.668;2023-11-21T00:21:37;100678.97;;;16.98;100.00
77776;BME280;73554;43.328;6.668;2023-11-21T00:24:02;100681.91;;;16.92;100.00
77776;BME280;73554;43.328;6.668;2023-11-21T00:26:28;100673.91;;;16.93;100.00
77776;BME280;73554;43.328;6.668;2023-11-21T00:28:53;100685.41;;;16.92;100.00
77776;BME280;73554;43.328;6.668;2023-11-21T00:31:19;100695.25;;;16.90;100.00
77776;BME280;73554;43.328;6.668;2023-11-21T00:33:44;100677.78;;;16.86;100.00
77776;BME280;73554;43.328;6.668;2023-11-21T00:36:10;100663.13;;;16.79;100.00
77776;BME280;73554;43.328;6.668;2023-11-21T00:38:36;100655.19;;;16.79;100.00
77776;BME280;73554;43.328;6.668;2023-11-21T00:41:01;100666.50;;;16.83;100.00
77776;BME280;73554;43.328;6.668;2023-11-21T00:43:28;100645.31;;;16.83;100.00
77776;BME280;73554;43.328;6.668;2023-11-21T00:45:53;100665.06;;;16.76;100.00
77776;BME280;73554;43.328;6.668;2023-11-21T00:48:19;100661.78;;;16.71;100.00
77776;BME280;73554;43.328;6.668;2023-11-21T00:50:44;100632.06;;;16.66;100.00
77776;BME280;73554;43.328;6.668;2023-11-21T00:53:09;100631.03;;;16.68;100.00
77776;BME280;73554;43.328;6.668;2023-11-21T00:55:36;100574.59;;;16.68;100.00
77776;BME280;73554;43.328;6.668;2023-11-21T00:58:01;100580.91;;;16.65;100.00
77776;BME280;73554;43.328;6.668;2023-11-21T01:00:29;100568.13;;;16.56;100.00
77776;BME280;73554;43.328;6.668;2023-11-21T01:02:55;100559.53;;;16.51;100.00
77776;BME280;73554;43.328;6.668;2023-11-21T01:05:20;100575.53;;;16.48;100.00
77776;BME280;73554;43.328;6.668;2023-11-21T01:07:45;100544.66;;;16.48;100.00
77776;BME280;73554;43.328;6.668;2023-11-21T01:10:11;100510.34;;;16.47;100.00
77776;BME280;73554;43.328;6.668;2023-11-21T01:12:37;100527.84;;;16.32;100.00
77776;BME280;73554;43.328;6.668;2023-11-21T01:15:06;100490.81;;;16.32;100.00
77776;BME280;73554;43.328;6.668;2023-11-21T01:17:33;100474.84;;;16.34;100.00
77776;BME280;73554;43.328;6.668;2023-11-21T01:20:00;100467.09;;;16.31;100.00
77776;BME280;73554;43.328;6.668;2023-11-21T01:22:25;100483.84;;;16.13;100.00
77776;BME280;73554;43.328;6.668;2023-11-21T01:24:53;100465.97;;;16.18;100.00
77776;BME280;73554;43.328;6.668;2023-11-21T01:27:18;100469.56;;;16.17;100.00
77776;BME280;73554;43.328;6.668;2023-11-21T01:29:44;100477.53;;;16.15;100.00
77776;BME280;73554;43.328;6.668;2023-11-21T01:32:10;100469.84;;;16.11;100.00
77776;BME280;73554;43.328;6.668;2023-11-21T01:34:35;100475.41;;;15.87;100.00
77776;BME280;73554;43.328;6.668;2023-11-21T01:37:01;100465.91;;;15.83;100.00
77776;BME280;73554;43.328;6.668;2023-11-21T01:39:29;100467.47;;;15.87;100.00
77776;BME280;73554;43.328;6.668;2023-11-21T01:41:55;100481.50;;;15.89;100.00
77776;BME280;73554;43.328;6.668;2023-11-21T01:44:20;100471.28;;;15.82;100.00
77776;BME280;73554;43.328;6.668;2023-11-21T01:46:46;100446.94;;;15.75;100.00
77776;BME280;73554;43.328;6.668;2023-11-21T01:49:13;100455.34;;;15.83;100.00
77776;BME280;73554;43.328;6.668;2023-11-21T01:51:41;100439.94;;;15.74;100.00
77776;BME280;73554;43.328;6.668;2023-11-21T01:54:09;100456.06;;;15.68;100.00
77776;BME280;73554;43.328;6.668;2023-11-21T01:56:34;100452.16;;;15.58;100.00
77776;BME280;73554;43.328;6.668;2023-11-21T01:59:00;100414.78;;;15.66;100.00
77776;BME280;73554;43.328;6.668;2023-11-21T02:01:26;100403.94;;;15.72;100.00
77776;BME280;73554;43.328;6.668;2023-11-21T02:03:51;100423.06;;;15.77;100.00
77776;BME280;73554;43.328;6.668;2023-11-21T02:06:18;100421.03;;;15.65;100.00
77776;BME280;73554;43.328;6.668;2023-11-21T02:08:45;100436.41;;;15.57;100.00
77776;BME280;73554;43.328;6.668;2023-11-21T02:11:10;100421.06;;;15.46;100.00
77776;BME280;73554;43.328;6.668;2023-11-21T02:13:38;100427.38;;;15.42;100.00
77776;BME280;73554;43.328;6.668;2023-11-21T02:16:09;100371.84;;;15.43;100.00
77776;BME280;73554;43.328;6.668;2023-11-21T02:18:35;100398.13;;;15.47;100.00
77776;BME280;73554;43.328;6.668;2023-11-21T02:21:04;100384.75;;;15.31;100.00
77776;BME280;73554;43.328;6.668;2023-11-21T02:23:29;100341.34;;;15.36;100.00
77776;BME280;73554;43.328;6.668;2023-11-21T02:25:55;100310.19;;;15.26;100.00
77776;BME280;73554;43.328;6.668;2023-11-21T02:28:20;100236.72;;;15.34;100.00
77776;BME280;73554;43.328;6.668;2023-11-21T02:30:51;100263.66;;;15.23;100.00
77776;BME280;73554;43.328;6.668;2023-11-21T02:33:21;100282.88;;;15.27;100.00
77776;BME280;73554;43.328;6.668;2023-11-21T02:35:46;100243.16;;;15.28;100.00
77776;BME280;73554;43.328;6.668;2023-11-21T02:38:12;100241.25;;;15.32;100.00
77776;BME280;73554;43.328;6.668;2023-11-21T02:40:37;100266.06;;;15.11;100.00
77776;BME280;73554;43.328;6.668;2023-11-21T02:43:03;100238.81;;;15.10;100.00
77776;BME280;73554;43.328;6.668;2023-11-21T02:45:31;100192.44;;;15.22;100.00
77776;BME280;73554;43.328;6.668;2023-11-21T02:47:57;100204.09;;;15.18;100.00
77776;BME280;73554;43.328;6.668;2023-11-21T02:50:22;100214.09;;;15.11;100.00
77776;BME280;73554;43.328;6.668;2023-11-21T02:52:48;100190.34;;;15.11;100.00
77776;BME280;73554;43.328;6.668;2023-11-21T02:55:13;100225.47;;;14.95;100.00
77776;BME280;73554;43.328;6.668;2023-11-21T02:57:38;100222.16;;;14.91;100.00
77776;BME280;73554;43.328;6.668;2023-11-21T03:00:04;100195.22;;;15.02;100.00
77776;BME280;73554;43.328;6.668;2023-11-21T03:02:33;100198.84;;;14.82;100.00
77776;BME280;73554;43.328;6.668;2023-11-21T03:04:58;100206.66;;;14.83;100.00
77776;BME280;73554;43.328;6.668;2023-11-21T03:07:24;100149.56;;;14.82;100.00
77776;BME280;73554;43.328;6.668;2023-11-21T03:09:50;100171.69;;;14.80;100.00
77776;BME280;73554;43.328;6.668;2023-11-21T03:12:15;100186.94;;;14.73;100.00
77776;BME280;73554;43.328;6.668;2023-11-21T03:14:41;100148.00;;;14.78;100.00
77776;BME280;73554;43.328;6.668;2023-11-21T03:17:06;100178.25;;;14.71;100.00
77776;BME280;73554;43.328;6.668;2023-11-21T03:19:32;100150.97;;;14.72;100.00
77776;BME280;73554;43.328;6.668;2023-11-21T03:21:58;100168.09;;;14.64;100.00
77776;BME280;73554;43.328;6.668;2023-11-21T03:24:24;100133.22;;;14.57;100.00
77776;BME280;73554;43.328;6.668;2023-11-21T03:26:50;100133.06;;;14.60;100.00
77776;BME280;73554;43.328;6.668;2023-11-21T03:29:16;100127.81;;;14.60;100.00
77776;BME280;73554;43.328;6.668;2023-11-21T03:31:41;100123.16;;;14.65;100.00
77776;BME280;73554;43.328;6.668;2023-11-21T03:34:14;100095.84;;;14.66;100.00
77776;BME280;73554;43.328;6.668;2023-11-21T03:36:39;100088.09;;;14.63;100.00
77776;BME280;73554;43.328;6.668;2023-11-21T03:39:05;100134.59;;;14.47;100.00
77776;BME280;73554;43.328;6.668;2023-11-21T03:41:30;100123.47;;;14.41;100.00
77776;BME280;73554;43.328;6.668;2023-11-21T03:43:55;100111.94;;;14.43;100.00
77776;BME280;73554;43.328;6.668;2023-11-21T03:46:21;100089.28;;;14.39;100.00
77776;BME280;73554;43.328;6.668;2023-11-21T03:48:46;100119.06;;;14.41;100.00
77776;BME280;73554;43.328;6.668;2023-11-21T03:51:12;100067.66;;;14.50;100.00
77776;BME280;73554;43.328;6.668;2023-11-21T03:53:37;100074.72;;;14.49;100.00
77776;BME280;73554;43.328;6.668;2023-11-21T03:56:03;100062.78;;;14.59;100.00
77776;BME280;73554;43.328;6.668;2023-11-21T03:58:29;100136.63;;;14.42;100.00
77776;BME280;73554;43.328;6.668;2023-11-21T04:00:54;99999.00;;;14.51;100.00
77776;BME280;73554;43.328;6.668;2023-11-21T04:03:20;100038.56;;;14.51;100.00
77776;BME280;73554;43.328;6.668;2023-11-21T04:05:45;100048.06;;;14.55;100.00
77776;BME280;73554;43.328;6.668;2023-11-21T04:08:11;100076.44;;;14.50;100.00
77776;BME280;73554;43.328;6.668;2023-11-21T04:10:36;100019.75;;;14.59;100.00
77776;BME280;73554;43.328;6.668;2023-11-21T04:13:02;100043.06;;;14.49;100.00
77776;BME280;73554;43.328;6.668;2023-11-21T04:15:27;100029.81;;;14.68;100.00
77776;BME280;73554;43.328;6.668;2023-11-21T04:17:52;100053.41;;;14.71;100.00
77776;BME280;73554;43.328;6.668;2023-11-21T04:20:18;100022.38;;;14.76;100.00
77776;BME280;73554;43.328;6.668;2023-11-21T04:22:44;100055.00;;;14.56;100.00
77776;BME280;73554;43.328;6.668;2023-11-21T04:25:10;100034.22;;;14.67;100.00
77776;BME280;73554;43.328;6.668;2023-11-21T04:27:37;100053.78;;;14.46;100.00
77776;BME280;73554;43.328;6.668;2023-11-21T04:30:03;100047.25;;;14.36;100.00
77776;BME280;73554;43.328;6.668;2023-11-21T04:32:28;100025.66;;;14.28;100.00
77776;BME280;73554;43.328;6.668;2023-11-21T04:34:54;99997.31;;;14.33;100.00
77776;BME280;73554;43.328;6.668;2023-11-21T04:37:19;100022.91;;;14.12;100.00
77776;BME280;73554;43.328;6.668;2023-11-21T04:39:45;99981.22;;;14.20;100.00
77776;BME280;73554;43.328;6.668;2023-11-21T04:42:10;100043.44;;;14.06;100.00
77776;BME280;73554;43.328;6.668;2023-11-21T04:44:35;100046.13;;;14.04;100.00
77776;BME280;73554;43.328;6.668;2023-11-21T04:47:01;100047.69;;;14.08;100.00
77776;BME280;73554;43.328;6.668;2023-11-21T04:49:30;100048.28;;;14.15;100.00
77776;BME280;73554;43.328;6.668;2023-11-21T04:51:55;99999.50;;;14.23;100.00
77776;BME280;73554;43.328;6.668;2023-11-21T04:54:20;100083.97;;;14.03;100.00
77776;BME280;73554;43.328;6.668;2023-11-21T04:56:46;99985.50;;;14.23;100.00
77776;BME280;73554;43.328;6.668;2023-11-21T04:59:12;100058.34;;;14.24;100.00
77776;BME280;73554;43.328;6.668;2023-11-21T05:01:37;100104.25;;;14.20;100.00
77776;BME280;73554;43.328;6.668;2023-11-21T05:04:04;99965.44;;;14.38;100.00
77776;BME280;73554;43.328;6.668;2023-11-21T05:06:31;100031.44;;;14.36;100.00
77776;BME280;73554;43.328;6.668;2023-11-21T05:08:56;100101.75;;;14.17;100.00
77776;BME280;73554;43.328;6.668;2023-11-21T05:11:26;100070.91;;;14.19;100.00
77776;BME280;73554;43.328;6.668;2023-11-21T05:13:51;100016.88;;;14.27;100.00
77776;BME280;73554;43.328;6.668;2023-11-21T05:16:17;100036.19;;;14.28;100.00
77776;BME280;73554;43.328;6.668;2023-11-21T05:18:42;100048.94;;;14.37;100.00
77776;BME280;73554;43.328;6.668;2023-11-21T05:21:08;99975.75;;;14.42;100.00
77776;BME280;73554;43.328;6.668;2023-11-21T05:23:33;100112.31;;;14.36;100.00
77776;BME280;73554;43.328;6.668;2023-11-21T05:25:59;100108.13;;;14.32;100.00
77776;BME280;73554;43.328;6.668;2023-11-21T05:28:25;100095.81;;;14.31;100.00
77776;BME280;73554;43.328;6.668;2023-11-21T05:30:50;100123.84;;;14.14;100.00
77776;BME280;73554;43.328;6.668;2023-11-21T05:33:16;100057.16;;;14.31;100.00
77776;BME280;73554;43.328;6.668;2023-11-21T05:35:41;100144.06;;;14.14;100.00
77776;BME280;73554;43.328;6.668;2023-11-21T05:38:07;100079.72;;;14.18;100.00
77776;BME280;73554;43.328;6.668;2023-11-21T05:40:32;100099.97;;;14.17;100.00
77776;BME280;73554;43.328;6.668;2023-11-21T05:42:58;100067.75;;;14.30;100.00
77776;BME280;73554;43.328;6.668;2023-11-21T05:45:23;100055.94;;;14.38;100.00
77776;BME280;73554;43.328;6.668;2023-11-21T05:47:49;100061.22;;;14.38;100.00
77776;BME280;73554;43.328;6.668;2023-11-21T05:50:15;100147.50;;;14.35;100.00
77776;BME280;73554;43.328;6.668;2023-11-21T05:52:42;100108.66;;;14.38;100.00
77776;BME280;73554;43.328;6.668;2023-11-21T05:55:08;100026.34;;;14.50;100.00
77776;BME280;73554;43.328;6.668;2023-11-21T05:57:38;100116.91;;;14.49;100.00
77776;BME280;73554;43.328;6.668;2023-11-21T06:02:39;100147.31;;;14.39;100.00
77776;BME280;73554;43.328;6.668;2023-11-21T06:05:08;100147.50;;;14.35;100.00
77776;BME280;73554;43.328;6.668;2023-11-21T06:07:34;100173.34;;;14.26;100.00
77776;BME280;73554;43.328;6.668;2023-11-21T06:10:01;100137.97;;;14.32;100.00
77776;BME280;73554;43.328;6.668;2023-11-21T06:12:28;100196.50;;;14.20;100.00
77776;BME280;73554;43.328;6.668;2023-11-21T06:14:54;100192.03;;;14.22;100.00
77776;BME280;73554;43.328;6.668;2023-11-21T06:17:20;100187.59;;;14.22;100.00
77776;BME280;73554;43.328;6.668;2023-11-21T06:19:46;100129.22;;;14.32;100.00
77776;BME280;73554;43.328;6.668;2023-11-21T06:22:11;100149.00;;;14.40;100.00
77776;BME280;73554;43.328;6.668;2023-11-21T06:24:37;100203.72;;;14.35;100.00
77776;BME280;73554;43.328;6.668;2023-11-21T06:27:05;100258.69;;;14.24;100.00
77776;BME280;73554;43.328;6.668;2023-11-21T06:29:31;100266.09;;;14.16;100.00
77776;BME280;73554;43.328;6.668;2023-11-21T06:31:57;100276.78;;;14.13;100.00
77776;BME280;73554;43.328;6.668;2023-11-21T06:34:23;100238.06;;;14.15;100.00
77776;BME280;73554;43.328;6.668;2023-11-21T06:36:49;100118.16;;;14.42;100.00
77776;BME280;73554;43.328;6.668;2023-11-21T06:39:14;100192.34;;;14.53;100.00
77776;BME280;73554;43.328;6.668;2023-11-21T06:41:41;100289.13;;;14.51;100.00
77776;BME280;73554;43.328;6.668;2023-11-21T06:44:08;100271.25;;;14.58;100.00
77776;BME280;73554;43.328;6.668;2023-11-21T06:46:34;100299.81;;;14.48;100.00
77776;BME280;73554;43.328;6.668;2023-11-21T06:48:59;100298.13;;;14.47;100.00
77776;BME280;73554;43.328;6.668;2023-11-21T06:51:25;100314.13;;;14.43;100.00
77776;BME280;73554;43.328;6.668;2023-11-21T06:53:50;100319.69;;;14.37;100.00
77776;BME280;73554;43.328;6.668;2023-11-21T06:56:18;100286.44;;;14.53;100.00
77776;BME280;73554;43.328;6.668;2023-11-21T06:58:45;100249.06;;;14.62;100.00
77776;BME280;73554;43.328;6.668;2023-11-21T07:01:14;100245.44;;;14.64;100.00
77776;BME280;73554;43.328;6.668;2023-11-21T07:03:41;100247.38;;;14.61;100.00
77776;BME280;73554;43.328;6.668;2023-11-21T07:06:06;100201.22;;;14.69;100.00
77776;BME280;73554;43.328;6.668;2023-11-21T07:08:32;100250.50;;;14.69;100.00
77776;BME280;73554;43.328;6.668;2023-11-21T07:10:58;100282.72;;;14.57;100.00
77776;BME280;73554;43.328;6.668;2023-11-21T07:13:23;100221.53;;;14.67;100.00
77776;BME280;73554;43.328;6.668;2023-11-21T07:15:49;100234.56;;;14.70;100.00
77776;BME280;73554;43.328;6.668;2023-11-21T07:18:14;100243.72;;;14.63;100.00
77776;BME280;73554;43.328;6.668;2023-11-21T07:20:40;100217.88;;;14.70;100.00
77776;BME280;73554;43.328;6.668;2023-11-21T07:23:05;100242.50;;;14.70;100.00
77776;BME280;73554;43.328;6.668;2023-11-21T07:25:34;100208.78;;;14.77;100.00
77776;BME280;73554;43.328;6.668;2023-11-21T07:28:00;100216.53;;;14.80;100.00
77776;BME280;73554;43.328;6.668;2023-11-21T07:30:25;100163.72;;;14.99;100.00
77776;BME280;73554;43.328;6.668;2023-11-21T07:32:51;100218.59;;;15.09;100.00
77776;BME280;73554;43.328;6.668;2023-11-21T07:35:16;100270.91;;;15.01;100.00
77776;BME280;73554;43.328;6.668;2023-11-21T07:37:42;100235.16;;;15.13;100.00
77776;BME280;73554;43.328;6.668;2023-11-21T07:40:08;100252.53;;;15.17;100.00
77776;BME280;73554;43.328;6.668;2023-11-21T07:42:34;100331.91;;;14.95;100.00
77776;BME280;73554;43.328;6.668;2023-11-21T07:45:00;100326.09;;;14.89;100.00
77776;BME280;73554;43.328;6.668;2023-11-21T07:47:25;100287.84;;;14.97;100.00
77776;BME280;73554;43.328;6.668;2023-11-21T07:49:53;100279.22;;;14.94;100.00
77776;BME280;73554;43.328;6.668;2023-11-21T07:52:18;100352.91;;;14.79;100.00
77776;BME280;73554;43.328;6.668;2023-11-21T07:54:46;100353.88;;;14.77;100.00
77776;BME280;73554;43.328;6.668;2023-11-21T07:57:11;100336.59;;;14.70;100.00
77776;BME280;73554;43.328;6.668;2023-11-21T07:59:39;100284.50;;;14.75;100.00
77776;BME280;73554;43.328;6.668;2023-11-21T08:02:06;100363.84;;;14.70;100.00
77776;BME280;73554;43.328;6.668;2023-11-21T08:04:31;100296.75;;;14.76;100.00
77776;BME280;73554;43.328;6.668;2023-11-21T08:06:57;100313.53;;;14.75;100.00
77776;BME280;73554;43.328;6.668;2023-11-21T08:09:22;100274.13;;;14.89;100.00
77776;BME280;73554;43.328;6.668;2023-11-21T08:11:49;100294.75;;;15.00;100.00
77776;BME280;73554;43.328;6.668;2023-11-21T08:14:14;100266.34;;;15.05;100.00
77776;BME280;73554;43.328;6.668;2023-11-21T08:16:40;100367.88;;;14.98;100.00
77776;BME280;73554;43.328;6.668;2023-11-21T08:19:06;100314.75;;;15.05;100.00
77776;BME280;73554;43.328;6.668;2023-11-21T08:21:31;100400.91;;;15.06;100.00
77776;BME280;73554;43.328;6.668;2023-11-21T08:23:56;100360.03;;;15.15;100.00
77776;BME280;73554;43.328;6.668;2023-11-21T08:26:22;100351.22;;;15.14;100.00
77776;BME280;73554;43.328;6.668;2023-11-21T08:28:48;100441.22;;;14.91;100.00
77776;BME280;73554;43.328;6.668;2023-11-21T08:31:14;100431.50;;;14.92;100.00
77776;BME280;73554;43.328;6.668;2023-11-21T08:33:40;100404.13;;;14.94;100.00
77776;BME280;73554;43.328;6.668;2023-11-21T08:36:09;100392.34;;;15.01;100.00
77776;BME280;73554;43.328;6.668;2023-11-21T08:38:35;100458.88;;;14.89;100.00
77776;BME280;73554;43.328;6.668;2023-11-21T08:41:07;100401.81;;;14.87;100.00
77776;BME280;73554;43.328;6.668;2023-11-21T08:43:35;100437.72;;;14.91;100.00
77776;BME280;73554;43.328;6.668;2023-11-21T08:46:05;100476.25;;;14.74;100.00
77776;BME280;73554;43.328;6.668;2023-11-21T08:48:30;100422.78;;;14.90;100.00
77776;BME280;73554;43.328;6.668;2023-11-21T08:50:56;100458.31;;;14.82;100.00
77776;BME280;73554;43.328;6.668;2023-11-21T08:53:21;100413.38;;;15.03;100.00
77776;BME280;73554;43.328;6.668;2023-11-21T08:55:47;100425.09;;;14.97;100.00
77776;BME280;73554;43.328;6.668;2023-11-21T08:58:13;100390.19;;;15.09;100.00
77776;BME280;73554;43.328;6.668;2023-11-21T09:00:40;100437.00;;;15.06;100.00
77776;BME280;73554;43.328;6.668;2023-11-21T09:03:05;100362.38;;;15.21;100.00
77776;BME280;73554;43.328;6.668;2023-11-21T09:05:34;100392.81;;;15.28;100.00
77776;BME280;73554;43.328;6.668;2023-11-21T09:07:59;100445.50;;;15.12;100.00
77776;BME280;73554;43.328;6.668;2023-11-21T09:10:25;100401.56;;;15.30;100.00
77776;BME280;73554;43.328;6.668;2023-11-21T09:12:50;100365.72;;;15.43;100.00
77776;BME280;73554;43.328;6.668;2023-11-21T09:15:17;100352.72;;;15.57;100.00
77776;BME280;73554;43.328;6.668;2023-11-21T09:17:42;100339.59;;;15.73;100.00
77776;BME280;73554;43.328;6.668;2023-11-21T09:20:10;100337.56;;;15.78;100.00
77776;BME280;73554;43.328;6.668;2023-11-21T09:22:35;100329.25;;;15.85;100.00
77776;BME280;73554;43.328;6.668;2023-11-21T09:25:01;100309.34;;;15.95;100.00
77776;BME280;73554;43.328;6.668;2023-11-21T09:27:31;100310.91;;;15.99;100.00
77776;BME280;73554;43.328;6.668;2023-11-21T09:29:56;100301.63;;;16.08;100.00
77776;BME280;73554;43.328;6.668;2023-11-21T09:32:23;100333.63;;;16.04;100.00
77776;BME280;73554;43.328;6.668;2023-11-21T09:34:49;100287.84;;;16.19;100.00
77776;BME280;73554;43.328;6.668;2023-11-21T09:37:15;100280.53;;;16.24;100.00
77776;BME280;73554;43.328;6.668;2023-11-21T09:39:41;100326.19;;;16.27;100.00
77776;BME280;73554;43.328;6.668;2023-11-21T09:42:13;100324.16;;;16.32;100.00
77776;BME280;73554;43.328;6.668;2023-11-21T09:44:44;100302.41;;;16.43;100.00
77776;BME280;73554;43.328;6.668;2023-11-21T09:47:14;100286.84;;;16.54;100.00
77776;BME280;73554;43.328;6.668;2023-11-21T09:49:45;100327.31;;;16.56;100.00
77776;BME280;73554;43.328;6.668;2023-11-21T09:52:21;100335.88;;;16.61;100.00
77776;BME280;73554;43.328;6.668;2023-11-21T09:54:49;100355.78;;;16.68;100.00
77776;BME280;73554;43.328;6.668;2023-11-21T09:57:15;100319.31;;;16.89;100.00
77776;BME280;73554;43.328;6.668;2023-11-21T09:59:42;100369.06;;;17.15;100.00
77776;BME280;73554;43.328;6.668;2023-11-21T10:02:08;100364.78;;;17.44;100.00
77776;BME280;73554;43.328;6.668;2023-11-21T10:04:38;100411.53;;;17.76;100.00
77776;BME280;73554;43.328;6.668;2023-11-21T10:07:04;100402.88;;;18.18;100.00
77776;BME280;73554;43.328;6.668;2023-11-21T10:09:35;100440.59;;;18.39;100.00
77776;BME280;73554;43.328;6.668;2023-11-21T10:12:03;100460.38;;;18.63;100.00
77776;BME280;73554;43.328;6.668;2023-11-21T10:14:34;100441.34;;;18.99;100.00
77776;BME280;73554;43.328;6.668;2023-11-21T10:17:02;100455.56;;;19.26;100.00
77776;BME280;73554;43.328;6.668;2023-11-21T10:19:29;100440.09;;;19.46;100.00
77776;BME280;73554;43.328;6.668;2023-11-21T10:21:55;100465.25;;;19.55;100.00
77776;BME280;73554;43.328;6.668;2023-11-21T10:24:22;100478.16;;;19.61;100.00
77776;BME280;73554;43.328;6.668;2023-11-21T10:26:48;100486.75;;;19.65;100.00
77776;BME280;73554;43.328;6.668;2023-11-21T10:29:14;100480.38;;;19.67;100.00
77776;BME280;73554;43.328;6.668;2023-11-21T10:31:42;100494.72;;;19.79;100.00
77776;BME280;73554;43.328;6.668;2023-11-21T10:34:18;100495.56;;;19.79;100.00
77776;BME280;73554;43.328;6.668;2023-11-21T10:36:45;100478.13;;;20.02;100.00
77776;BME280;73554;43.328;6.668;2023-11-21T10:39:18;100485.72;;;20.08;100.00
77776;BME280;73554;43.328;6.668;2023-11-21T10:41:47;100491.16;;;20.19;100.00
77776;BME280;73554;43.328;6.668;2023-11-21T10:44:14;100477.06;;;20.31;100.00
77776;BME280;73554;43.328;6.668;2023-11-21T10:46:49;100497.63;;;20.29;100.00
77776;BME280;73554;43.328;6.668;2023-11-21T10:49:17;100485.72;;;20.08;100.00
77776;BME280;73554;43.328;6.668;2023-11-21T10:51:46;100500.00;;;19.93;100.00
77776;BME280;73554;43.328;6.668;2023-11-21T10:54:17;100484.41;;;19.60;100.00
77776;BME280;73554;43.328;6.668;2023-11-21T10:56:43;100478.16;;;19.19;100.00
77776;BME280;73554;43.328;6.668;2023-11-21T10:59:10;100491.22;;;18.93;100.00
77776;BME280;73554;43.328;6.668;2023-11-21T11:01:42;100490.31;;;19.09;100.00
77776;BME280;73554;43.328;6.668;2023-11-21T11:04:09;100496.09;;;19.01;100.00
77776;BME280;73554;43.328;6.668;2023-11-21T11:06:43;100485.84;;;18.95;100.00
77776;BME280;73554;43.328;6.668;2023-11-21T11:09:11;100477.47;;;18.87;100.00
77776;BME280;73554;43.328;6.668;2023-11-21T11:11:42;100471.13;;;18.89;100.00
77776;BME280;73554;43.328;6.668;2023-11-21T11:14:13;100463.34;;;18.86;100.00
77776;BME280;73554;43.328;6.668;2023-11-21T11:16:39;100452.06;;;18.97;100.00
77776;BME280;73554;43.328;6.668;2023-11-21T11:19:08;100457.94;;;18.74;100.00
77776;BME280;73554;43.328;6.668;2023-11-21T11:24:17;100454.78;;;18.67;100.00
77776;BME280;73554;43.328;6.668;2023-11-21T11:26:58;100449.38;;;18.69;100.00
77776;BME280;73554;43.328;6.668;2023-11-21T11:29:36;100442.44;;;18.66;100.00
77776;BME280;73554;43.328;6.668;2023-11-21T11:34:36;100430.13;;;18.65;100.00
77776;BME280;73554;43.328;6.668;2023-11-21T11:37:06;100431.75;;;18.68;100.00
77776;BME280;73554;43.328;6.668;2023-11-21T11:39:43;100428.91;;;18.85;100.00
77776;BME280;73554;43.328;6.668;2023-11-21T11:42:12;100418.06;;;18.88;100.00
77776;BME280;73554;43.328;6.668;2023-11-21T11:47:25;100406.88;;;18.83;100.00
77776;BME280;73554;43.328;6.668;2023-11-21T11:50:04;100415.34;;;18.75;100.00
77776;BME280;73554;43.328;6.668;2023-11-21T11:52:51;100407.34;;;18.61;100.00
77776;BME280;73554;43.328;6.668;2023-11-21T11:55:19;100394.25;;;18.44;100.00
77776;BME280;73554;43.328;6.668;2023-11-21T11:57:56;100402.00;;;18.47;100.00
77776;BME280;73554;43.328;6.668;2023-11-21T12:02:54;100398.16;;;18.53;100.00
77776;BME280;73554;43.328;6.668;2023-11-21T12:05:21;100401.47;;;18.56;100.00
77776;BME280;73554;43.328;6.668;2023-11-21T12:07:50;100401.56;;;18.69;100.00
77776;BME280;73554;43.328;6.668;2023-11-21T12:10:18;100406.50;;;18.75;100.00
77776;BME280;73554;43.328;6.668;2023-11-21T12:12:45;100389.53;;;18.77;100.00
77776;BME280;73554;43.328;6.668;2023-11-21T12:15:11;100400.81;;;18.81;100.00
77776;BME280;73554;43.328;6.668;2023-11-21T12:17:38;100391.31;;;18.91;100.00
77776;BME280;73554;43.328;6.668;2023-11-21T12:20:04;100404.03;;;18.86;100.00
77776;BME280;73554;43.328;6.668;2023-11-21T12:25:06;100385.00;;;18.79;100.00
77776;BME280;73554;43.328;6.668;2023-11-21T12:30:05;100387.47;;;18.68;100.00
77776;BME280;73554;43.328;6.668;2023-11-21T12:32:31;100381.19;;;18.69;100.00
77776;BME280;73554;43.328;6.668;2023-11-21T12:34:57;100404.59;;;18.49;100.00
77776;BME280;73554;43.328;6.668;2023-11-21T12:37:22;100414.34;;;18.18;100.00
77776;BME280;73554;43.328;6.668;2023-11-21T12:39:48;100389.91;;;18.13;100.00
77776;BME280;73554;43.328;6.668;2023-11-21T12:42:14;100397.47;;;18.05;100.00
77776;BME280;73554;43.328;6.668;2023-11-21T12:47:06;100400.16;;;18.19;100.00
77776;BME280;73554;43.328;6.668;2023-11-21T12:49:31;100407.28;;;18.33;100.00
77776;BME280;73554;43.328;6.668;2023-11-21T12:52:03;100405.47;;;18.19;100.00
77776;BME280;73554;43.328;6.668;2023-11-21T12:54:29;100416.31;;;18.15;100.00
77776;BME280;73554;43.328;6.668;2023-11-21T12:56:59;100416.50;;;18.12;100.00
77776;BME280;73554;43.328;6.668;2023-11-21T12:59:24;100409.09;;;18.03;100.00